Terminal Aerodrome Forecast
Issued by NWS

Home | Current Version | Previous Version | Text Only | Print | Product List | Glossary On
Versions: 1 2 3 4 5 6 7 8 9 10 11 12
000
FTUS42 KTBW 230548
TAFRSW
TAF
KRSW 230548Z 2306/2406 VRB03KT P6SM SCT025 BKN050
      TEMPO 2308/2312 BKN020
     FM231500 06006KT P6SM VCSH SCT035 BKN050
     FM231900 31009KT P6SM VCTS SCT040CB BKN070
     FM240100 32004KT P6SM FEW030 BKN250=

USA.gov is the U.S. government's official web portal to all federal, state and local government web resources and services.